Flight Track Log - Related Links

Times and Time Zones

All times are in EDT time to prevent confusion due to time zone crossing. See the USC392 flight status page for this flight to view local times or setup timezone preferences in your user account.

Time Position Orientation Groundspeed Altitude Reporting Facility
EDT Latitude Longitude Course Direction KTS MPH feet Rate Location/Type
Thu 09:17:16 PM 33.5508 -86.7806 238° Southwest 88 101 1,300  Level Atlanta Center
Thu 09:17:40 PM 33.5444 -86.7928 238° Southwest 95 109 1,800 1,129 Climbing Atlanta Center
Thu 09:18:41 PM 33.5478 -86.8231 278° West 127 146 2,900 984 Climbing Atlanta Center
Thu 09:19:42 PM 33.5856 -86.8142 11° North 151 174 3,800 942 Climbing Atlanta Center
Thu 09:20:42 PM 33.6156 -86.7803 43° Northeast 148 170 4,800 595 Climbing Atlanta Center
Thu 09:21:43 PM 33.6478 -86.7414 45° Northeast 174 200 5,000 347 Climbing Atlanta Center
Thu 09:22:43 PM 33.6842 -86.6975 45° Northeast 182 209 5,500 595 Climbing Atlanta Center
Thu 09:23:44 PM 33.7161 -86.6636 41° Northeast 159 183 6,200 744 Climbing Atlanta Center
Thu 09:24:44 PM 33.7461 -86.6244 47° Northeast 154 177 7,000 744 Climbing Atlanta Center
Thu 09:25:45 PM 33.7619 -86.5775 68° East 157 181 7,700 738 Climbing Atlanta Center
Thu 09:26:46 PM 33.7753 -86.5303 71° East 148 170 8,500 655 Climbing Atlanta Center
Thu 09:27:44 PM 33.7911 -86.4758 71° East 146 168 9,000 254 Climbing Atlanta Center
Thu 09:28:44 PM 33.8044 -86.4264 72° East 174 200 9,000  Level Atlanta Center
Thu 09:29:44 PM 33.8203 -86.3667 72° East 179 206 9,000  Level Atlanta Center
Thu 09:30:44 PM 33.8358 -86.3097 72° East 184 212 9,000  Level Atlanta Center
Thu 09:31:44 PM 33.8517 -86.2550 71° East 184 212 9,000  Level Atlanta Center
Thu 09:32:44 PM 33.8694 -86.1953 70° East 184 212 9,000  Level Atlanta Center
Thu 09:33:44 PM 33.8828 -86.1408 74° East 178 205 9,000  Level Atlanta Center
Thu 09:34:44 PM 33.9006 -86.0836 69° East 178 205 9,000  Level Atlanta Center
Thu 09:35:44 PM 33.9181 -86.0264 70° East 178 205 9,000  Level Atlanta Center
Thu 09:36:44 PM 33.9336 -85.9667 73° East 178 205 9,000  Level Atlanta Center
Thu 09:37:44 PM 33.9469 -85.9144 73° East 178 205 9,000  Level Atlanta Center
Thu 09:38:44 PM 33.9625 -85.8572 72° East 178 205 9,000  Level Atlanta Center
Thu 09:39:44 PM 33.9758 -85.7997 74° East 178 205 9,000  Level Atlanta Center
Thu 09:40:44 PM 33.9725 -85.7422 94° East 173 199 9,000 -200 Level Atlanta Center
Thu 09:41:44 PM 33.9711 -85.6794 92° East 179 206 8,600 -450 Descending Atlanta Center
Thu 09:42:44 PM 33.9719 -85.6144 89° East 185 213 8,100 -550 Descending Atlanta Center
Thu 09:43:44 PM 33.9708 -85.5492 91° East 185 213 7,500 450 Descending Atlanta Center
Thu 09:44:44 PM 33.9653 -85.4889 96° East 185 213 9,000 -500 Climbing Atlanta Center
Thu 09:45:44 PM 33.9658 -85.4264 89° East 191 220 6,500 -1,500 Descending Atlanta Center
Thu 09:46:44 PM 33.9644 -85.3639 92° East 191 220 6,000 -550 Descending Atlanta Center
Thu 09:47:44 PM 33.9631 -85.3036 92° East 191 220 5,400 -400 Descending Atlanta Center
Thu 09:48:44 PM 33.9636 -85.2411 89° East 191 220 5,200 1,800 Descending Atlanta Center
Thu 09:49:44 PM 33.9644 -85.1783 89° East 191 220 9,000 -100 Climbing Atlanta Center
Thu 09:50:44 PM 33.9606 -85.1258 95° East 165 190 5,000 -2,000 Descending Atlanta Center
Thu 09:51:44 PM 33.9592 -85.0681 92° East 165 190 5,000  Level Atlanta Center
Thu 09:52:44 PM 33.9575 -85.0081 92° East 160 184 5,000  Level Atlanta Center
Thu 09:53:44 PM 33.9600 -84.9506 87° East 160 184 5,000  Level Atlanta Center
Thu 09:54:44 PM 33.9728 -84.8956 74° East 160 184 5,000  Level Atlanta Center
Thu 09:55:44 PM 33.9794 -84.8381 82° East 166 191 5,000  Level Atlanta Center
Thu 09:57:36 PM 33.9833 -84.7333 87° East 171 197 5,000  Level Atlanta TRACON
Thu 09:58:36 PM 33.9833 -84.6667 90° East 173 199 5,000  Level Atlanta TRACON
Thu 09:59:36 PM 33.9833 -84.6167 90° East 174 200 5,000  Level Atlanta TRACON
Thu 10:00:30 PM 34.0000 -84.5667 68° East 172 198 5,000  Level Atlanta TRACON
Thu 10:01:30 PM 34.0000 -84.5167 90° East 173 199 5,000 -200 Level Atlanta TRACON
Thu 10:02:30 PM 34.0000 -84.4500 90° East 177 204 4,600 -429 Descending Atlanta TRACON
Thu 10:03:36 PM 34.0000 -84.3833 90° East 189 217 4,100 -450 Descending Atlanta TRACON
Thu 10:04:30 PM 34.0000 -84.3333 90° East 185 213 3,700 -579 Descending Atlanta TRACON
Thu 10:05:30 PM 34.0000 -84.2667 90° East 189 217 3,000 -571 Descending Atlanta TRACON
Thu 10:06:36 PM 33.9667 -84.2667 180° South 151 174 2,500 -571 Descending Atlanta TRACON
Thu 10:07:36 PM 33.9167 -84.2833 195° South 142 163 1,800 -700 Descending Atlanta TRACON
Thu 10:09:00 PM 33.8756 -84.3020 153° Southeast  Level Estimated
Thu 10:16:00 PM 33.8756 -84.3020 153° Southeast  Level Estimated
Thu 10:17:00 PM 33.8756 -84.3020 153° Southeast  Level Estimated

Login

Don't have an account? Register now (free) for customized features, flight alerts, and more!